sensor_id;sensor_type;location;lat;lon;timestamp;P1;durP1;ratioP1;P2;durP2;ratioP2
53879;SDS011;39791;53.184;5.486;2022-11-23T00:00:54;21.40;;;9.57;;
53879;SDS011;39791;53.184;5.486;2022-11-23T00:03:19;19.80;;;10.50;;
53879;SDS011;39791;53.184;5.486;2022-11-23T00:05:45;17.45;;;11.38;;
53879;SDS011;39791;53.184;5.486;2022-11-23T00:08:10;19.15;;;11.68;;
53879;SDS011;39791;53.184;5.486;2022-11-23T00:10:36;21.10;;;8.90;;
53879;SDS011;39791;53.184;5.486;2022-11-23T00:13:01;13.30;;;8.20;;
53879;SDS011;39791;53.184;5.486;2022-11-23T00:15:27;16.73;;;9.15;;
53879;SDS011;39791;53.184;5.486;2022-11-23T00:17:52;18.92;;;9.80;;
53879;SDS011;39791;53.184;5.486;2022-11-23T00:20:18;18.40;;;10.07;;
53879;SDS011;39791;53.184;5.486;2022-11-23T00:22:44;14.93;;;9.32;;
53879;SDS011;39791;53.184;5.486;2022-11-23T00:25:09;20.85;;;10.52;;
53879;SDS011;39791;53.184;5.486;2022-11-23T00:27:35;19.70;;;10.55;;
53879;SDS011;39791;53.184;5.486;2022-11-23T00:30:00;17.30;;;8.68;;
53879;SDS011;39791;53.184;5.486;2022-11-23T00:32:27;18.08;;;9.63;;
53879;SDS011;39791;53.184;5.486;2022-11-23T00:34:54;15.55;;;8.27;;
53879;SDS011;39791;53.184;5.486;2022-11-23T00:37:19;12.55;;;6.82;;
53879;SDS011;39791;53.184;5.486;2022-11-23T00:39:45;26.02;;;11.73;;
53879;SDS011;39791;53.184;5.486;2022-11-23T00:42:10;21.75;;;11.25;;
53879;SDS011;39791;53.184;5.486;2022-11-23T00:44:36;17.80;;;10.07;;
53879;SDS011;39791;53.184;5.486;2022-11-23T00:47:01;19.95;;;9.60;;
53879;SDS011;39791;53.184;5.486;2022-11-23T00:49:27;16.75;;;9.00;;
53879;SDS011;39791;53.184;5.486;2022-11-23T00:51:52;13.82;;;8.45;;
53879;SDS011;39791;53.184;5.486;2022-11-23T00:54:18;15.95;;;8.82;;
53879;SDS011;39791;53.184;5.486;2022-11-23T00:56:43;22.35;;;9.50;;
53879;SDS011;39791;53.184;5.486;2022-11-23T00:59:09;20.48;;;10.88;;
53879;SDS011;39791;53.184;5.486;2022-11-23T01:01:35;29.95;;;13.65;;
53879;SDS011;39791;53.184;5.486;2022-11-23T01:04:04;20.88;;;10.73;;
53879;SDS011;39791;53.184;5.486;2022-11-23T01:06:33;22.13;;;12.80;;
53879;SDS011;39791;53.184;5.486;2022-11-23T01:09:13;20.25;;;10.10;;
53879;SDS011;39791;53.184;5.486;2022-11-23T01:11:41;21.88;;;10.20;;
53879;SDS011;39791;53.184;5.486;2022-11-23T01:14:07;22.20;;;11.02;;
53879;SDS011;39791;53.184;5.486;2022-11-23T01:16:34;15.60;;;9.40;;
53879;SDS011;39791;53.184;5.486;2022-11-23T01:19:05;18.15;;;11.32;;
53879;SDS011;39791;53.184;5.486;2022-11-23T01:21:33;21.98;;;11.13;;
53879;SDS011;39791;53.184;5.486;2022-11-23T01:23:59;18.65;;;12.05;;
53879;SDS011;39791;53.184;5.486;2022-11-23T01:26:28;24.63;;;15.77;;
53879;SDS011;39791;53.184;5.486;2022-11-23T01:28:53;18.75;;;9.45;;
53879;SDS011;39791;53.184;5.486;2022-11-23T01:31:20;21.88;;;10.40;;
53879;SDS011;39791;53.184;5.486;2022-11-23T01:33:51;21.00;;;12.40;;
53879;SDS011;39791;53.184;5.486;2022-11-23T01:36:18;16.77;;;10.30;;
53879;SDS011;39791;53.184;5.486;2022-11-23T01:38:46;17.92;;;10.30;;
53879;SDS011;39791;53.184;5.486;2022-11-23T01:41:13;23.30;;;11.80;;
53879;SDS011;39791;53.184;5.486;2022-11-23T01:43:41;29.05;;;12.27;;
53879;SDS011;39791;53.184;5.486;2022-11-23T01:46:07;29.40;;;16.23;;
53879;SDS011;39791;53.184;5.486;2022-11-23T01:48:40;19.42;;;13.00;;
53879;SDS011;39791;53.184;5.486;2022-11-23T01:51:10;21.30;;;12.65;;
53879;SDS011;39791;53.184;5.486;2022-11-23T01:53:39;16.13;;;11.00;;
53879;SDS011;39791;53.184;5.486;2022-11-23T01:56:07;25.73;;;13.80;;
53879;SDS011;39791;53.184;5.486;2022-11-23T01:58:36;22.55;;;13.70;;
53879;SDS011;39791;53.184;5.486;2022-11-23T02:01:06;28.77;;;16.20;;
53879;SDS011;39791;53.184;5.486;2022-11-23T02:03:32;29.25;;;16.77;;
53879;SDS011;39791;53.184;5.486;2022-11-23T02:06:00;35.40;;;18.48;;
53879;SDS011;39791;53.184;5.486;2022-11-23T02:08:29;39.42;;;19.70;;
53879;SDS011;39791;53.184;5.486;2022-11-23T02:10:56;26.42;;;13.68;;
53879;SDS011;39791;53.184;5.486;2022-11-23T02:13:22;23.60;;;14.48;;
53879;SDS011;39791;53.184;5.486;2022-11-23T02:15:50;25.20;;;16.45;;
53879;SDS011;39791;53.184;5.486;2022-11-23T02:18:18;23.30;;;13.50;;
53879;SDS011;39791;53.184;5.486;2022-11-23T02:20:47;26.42;;;15.05;;
53879;SDS011;39791;53.184;5.486;2022-11-23T02:28:09;41.42;;;21.65;;
53879;SDS011;39791;53.184;5.486;2022-11-23T02:30:44;34.03;;;18.52;;
53879;SDS011;39791;53.184;5.486;2022-11-23T02:33:13;19.45;;;12.98;;
53879;SDS011;39791;53.184;5.486;2022-11-23T02:38:14;21.38;;;13.85;;
53879;SDS011;39791;53.184;5.486;2022-11-23T02:40:41;25.38;;;16.02;;
53879;SDS011;39791;53.184;5.486;2022-11-23T02:43:06;29.77;;;19.00;;
53879;SDS011;39791;53.184;5.486;2022-11-23T02:45:40;27.60;;;16.33;;
53879;SDS011;39791;53.184;5.486;2022-11-23T02:48:13;31.65;;;19.85;;
53879;SDS011;39791;53.184;5.486;2022-11-23T02:50:39;37.30;;;22.27;;
53879;SDS011;39791;53.184;5.486;2022-11-23T02:53:05;30.35;;;18.17;;
53879;SDS011;39791;53.184;5.486;2022-11-23T02:55:31;28.65;;;17.42;;
53879;SDS011;39791;53.184;5.486;2022-11-23T02:57:57;35.20;;;18.65;;
53879;SDS011;39791;53.184;5.486;2022-11-23T03:00:22;29.10;;;15.43;;
53879;SDS011;39791;53.184;5.486;2022-11-23T03:02:48;26.98;;;16.95;;
53879;SDS011;39791;53.184;5.486;2022-11-23T03:05:14;39.28;;;22.75;;
53879;SDS011;39791;53.184;5.486;2022-11-23T03:07:39;37.38;;;21.48;;
53879;SDS011;39791;53.184;5.486;2022-11-23T03:10:05;41.95;;;23.65;;
53879;SDS011;39791;53.184;5.486;2022-11-23T03:12:31;31.98;;;19.52;;
53879;SDS011;39791;53.184;5.486;2022-11-23T03:14:56;30.85;;;18.58;;
53879;SDS011;39791;53.184;5.486;2022-11-23T03:17:22;35.33;;;19.33;;
53879;SDS011;39791;53.184;5.486;2022-11-23T03:19:48;35.85;;;19.45;;
53879;SDS011;39791;53.184;5.486;2022-11-23T03:22:13;36.17;;;21.92;;
53879;SDS011;39791;53.184;5.486;2022-11-23T03:24:39;41.67;;;23.58;;
53879;SDS011;39791;53.184;5.486;2022-11-23T03:27:04;32.25;;;21.00;;
53879;SDS011;39791;53.184;5.486;2022-11-23T03:29:30;42.10;;;23.33;;
53879;SDS011;39791;53.184;5.486;2022-11-23T03:31:55;27.75;;;16.50;;
53879;SDS011;39791;53.184;5.486;2022-11-23T03:34:21;26.98;;;14.20;;
53879;SDS011;39791;53.184;5.486;2022-11-23T03:36:47;30.02;;;17.05;;
53879;SDS011;39791;53.184;5.486;2022-11-23T03:39:13;26.45;;;16.08;;
53879;SDS011;39791;53.184;5.486;2022-11-23T03:41:38;26.77;;;15.10;;
53879;SDS011;39791;53.184;5.486;2022-11-23T03:44:04;35.00;;;21.35;;
53879;SDS011;39791;53.184;5.486;2022-11-23T03:46:29;43.53;;;23.20;;
53879;SDS011;39791;53.184;5.486;2022-11-23T03:48:55;36.08;;;22.35;;
53879;SDS011;39791;53.184;5.486;2022-11-23T03:51:21;38.80;;;22.00;;
53879;SDS011;39791;53.184;5.486;2022-11-23T03:53:47;34.47;;;19.27;;
53879;SDS011;39791;53.184;5.486;2022-11-23T03:56:12;33.50;;;20.70;;
53879;SDS011;39791;53.184;5.486;2022-11-23T03:58:38;37.45;;;20.65;;
53879;SDS011;39791;53.184;5.486;2022-11-23T04:01:04;36.42;;;20.77;;
53879;SDS011;39791;53.184;5.486;2022-11-23T04:03:29;33.03;;;21.48;;
53879;SDS011;39791;53.184;5.486;2022-11-23T04:05:55;39.80;;;21.90;;
53879;SDS011;39791;53.184;5.486;2022-11-23T04:08:20;40.47;;;24.15;;
53879;SDS011;39791;53.184;5.486;2022-11-23T04:10:46;44.90;;;25.33;;
53879;SDS011;39791;53.184;5.486;2022-11-23T04:13:11;36.42;;;19.98;;
53879;SDS011;39791;53.184;5.486;2022-11-23T04:15:37;27.45;;;18.10;;
53879;SDS011;39791;53.184;5.486;2022-11-23T04:18:02;31.45;;;17.23;;
53879;SDS011;39791;53.184;5.486;2022-11-23T04:20:28;39.20;;;19.52;;
53879;SDS011;39791;53.184;5.486;2022-11-23T04:22:54;32.90;;;17.83;;
53879;SDS011;39791;53.184;5.486;2022-11-23T04:25:19;35.92;;;19.50;;
53879;SDS011;39791;53.184;5.486;2022-11-23T04:27:45;38.83;;;22.05;;
53879;SDS011;39791;53.184;5.486;2022-11-23T04:30:11;31.20;;;19.42;;
53879;SDS011;39791;53.184;5.486;2022-11-23T04:32:37;34.47;;;18.75;;
53879;SDS011;39791;53.184;5.486;2022-11-23T04:35:02;33.72;;;18.42;;
53879;SDS011;39791;53.184;5.486;2022-11-23T04:37:28;32.13;;;18.20;;
53879;SDS011;39791;53.184;5.486;2022-11-23T04:39:54;33.00;;;17.75;;
53879;SDS011;39791;53.184;5.486;2022-11-23T04:42:20;38.03;;;20.08;;
53879;SDS011;39791;53.184;5.486;2022-11-23T04:44:45;29.17;;;18.13;;
53879;SDS011;39791;53.184;5.486;2022-11-23T04:47:11;37.33;;;20.20;;
53879;SDS011;39791;53.184;5.486;2022-11-23T04:49:37;39.97;;;21.33;;
53879;SDS011;39791;53.184;5.486;2022-11-23T04:52:02;40.22;;;21.98;;
53879;SDS011;39791;53.184;5.486;2022-11-23T04:54:29;28.60;;;17.90;;
53879;SDS011;39791;53.184;5.486;2022-11-23T04:56:54;33.28;;;16.83;;
53879;SDS011;39791;53.184;5.486;2022-11-23T04:59:20;34.58;;;16.75;;
53879;SDS011;39791;53.184;5.486;2022-11-23T05:01:47;23.75;;;15.52;;
53879;SDS011;39791;53.184;5.486;2022-11-23T05:04:13;36.05;;;20.40;;
53879;SDS011;39791;53.184;5.486;2022-11-23T05:06:38;33.83;;;18.48;;
53879;SDS011;39791;53.184;5.486;2022-11-23T05:09:04;34.03;;;20.27;;
53879;SDS011;39791;53.184;5.486;2022-11-23T05:11:29;37.80;;;20.20;;
53879;SDS011;39791;53.184;5.486;2022-11-23T05:13:55;31.85;;;16.25;;
53879;SDS011;39791;53.184;5.486;2022-11-23T05:16:20;35.45;;;17.67;;
53879;SDS011;39791;53.184;5.486;2022-11-23T05:18:46;28.08;;;14.00;;
53879;SDS011;39791;53.184;5.486;2022-11-23T05:21:11;23.83;;;13.55;;
53879;SDS011;39791;53.184;5.486;2022-11-23T05:23:37;29.52;;;14.23;;
53879;SDS011;39791;53.184;5.486;2022-11-23T05:26:03;28.45;;;17.52;;
53879;SDS011;39791;53.184;5.486;2022-11-23T05:28:28;24.92;;;14.48;;
53879;SDS011;39791;53.184;5.486;2022-11-23T05:30:54;23.40;;;13.40;;
53879;SDS011;39791;53.184;5.486;2022-11-23T05:33:19;28.17;;;16.50;;
53879;SDS011;39791;53.184;5.486;2022-11-23T05:35:45;31.75;;;14.15;;
53879;SDS011;39791;53.184;5.486;2022-11-23T05:38:10;34.30;;;19.33;;
53879;SDS011;39791;53.184;5.486;2022-11-23T05:40:36;23.95;;;14.45;;
53879;SDS011;39791;53.184;5.486;2022-11-23T05:43:02;31.45;;;15.90;;
53879;SDS011;39791;53.184;5.486;2022-11-23T05:45:28;33.15;;;16.92;;
53879;SDS011;39791;53.184;5.486;2022-11-23T05:47:55;31.83;;;19.10;;
53879;SDS011;39791;53.184;5.486;2022-11-23T05:50:22;25.67;;;13.88;;
53879;SDS011;39791;53.184;5.486;2022-11-23T05:52:50;27.52;;;15.18;;
53879;SDS011;39791;53.184;5.486;2022-11-23T05:55:15;33.17;;;17.85;;
53879;SDS011;39791;53.184;5.486;2022-11-23T05:57:41;30.23;;;16.60;;
53879;SDS011;39791;53.184;5.486;2022-11-23T06:00:08;27.50;;;18.02;;
53879;SDS011;39791;53.184;5.486;2022-11-23T06:02:35;21.25;;;13.60;;
53879;SDS011;39791;53.184;5.486;2022-11-23T06:05:02;30.38;;;17.15;;
53879;SDS011;39791;53.184;5.486;2022-11-23T06:07:27;39.03;;;20.30;;
53879;SDS011;39791;53.184;5.486;2022-11-23T06:09:53;27.67;;;19.63;;
53879;SDS011;39791;53.184;5.486;2022-11-23T06:12:18;31.58;;;17.55;;
53879;SDS011;39791;53.184;5.486;2022-11-23T06:14:44;19.83;;;12.90;;
53879;SDS011;39791;53.184;5.486;2022-11-23T06:17:09;28.90;;;16.98;;
53879;SDS011;39791;53.184;5.486;2022-11-23T06:19:35;20.38;;;12.73;;
53879;SDS011;39791;53.184;5.486;2022-11-23T06:22:01;25.35;;;14.18;;
53879;SDS011;39791;53.184;5.486;2022-11-23T06:24:26;28.92;;;16.88;;
53879;SDS011;39791;53.184;5.486;2022-11-23T06:26:52;32.70;;;21.23;;
53879;SDS011;39791;53.184;5.486;2022-11-23T06:29:18;35.78;;;21.70;;
53879;SDS011;39791;53.184;5.486;2022-11-23T06:31:44;30.77;;;18.77;;
53879;SDS011;39791;53.184;5.486;2022-11-23T06:34:10;35.97;;;21.60;;
53879;SDS011;39791;53.184;5.486;2022-11-23T06:36:36;33.92;;;22.05;;
53879;SDS011;39791;53.184;5.486;2022-11-23T06:39:02;27.27;;;17.35;;
53879;SDS011;39791;53.184;5.486;2022-11-23T06:41:27;27.38;;;16.50;;
53879;SDS011;39791;53.184;5.486;2022-11-23T06:43:53;31.45;;;18.60;;
53879;SDS011;39791;53.184;5.486;2022-11-23T06:46:18;26.52;;;17.25;;
53879;SDS011;39791;53.184;5.486;2022-11-23T06:48:44;28.42;;;13.63;;
53879;SDS011;39791;53.184;5.486;2022-11-23T06:51:11;28.95;;;17.58;;
53879;SDS011;39791;53.184;5.486;2022-11-23T06:53:37;29.05;;;17.08;;
53879;SDS011;39791;53.184;5.486;2022-11-23T06:56:03;27.58;;;19.35;;
53879;SDS011;39791;53.184;5.486;2022-11-23T06:58:29;30.50;;;17.88;;
53879;SDS011;39791;53.184;5.486;2022-11-23T07:00:58;31.25;;;19.02;;
53879;SDS011;39791;53.184;5.486;2022-11-23T07:03:25;29.15;;;17.17;;
53879;SDS011;39791;53.184;5.486;2022-11-23T07:05:51;29.35;;;15.68;;
53879;SDS011;39791;53.184;5.486;2022-11-23T07:08:17;22.20;;;13.93;;
53879;SDS011;39791;53.184;5.486;2022-11-23T07:10:43;30.00;;;18.52;;
53879;SDS011;39791;53.184;5.486;2022-11-23T07:13:09;26.10;;;16.60;;
53879;SDS011;39791;53.184;5.486;2022-11-23T07:15:35;29.83;;;17.17;;
53879;SDS011;39791;53.184;5.486;2022-11-23T07:18:01;32.95;;;20.15;;
53879;SDS011;39791;53.184;5.486;2022-11-23T07:20:27;24.13;;;14.98;;
53879;SDS011;39791;53.184;5.486;2022-11-23T07:23:06;23.52;;;15.18;;
53879;SDS011;39791;53.184;5.486;2022-11-23T07:25:33;20.90;;;13.95;;
53879;SDS011;39791;53.184;5.486;2022-11-23T07:28:01;23.05;;;13.40;;
53879;SDS011;39791;53.184;5.486;2022-11-23T07:30:29;24.48;;;13.57;;
53879;SDS011;39791;53.184;5.486;2022-11-23T07:32:59;27.08;;;16.52;;
53879;SDS011;39791;53.184;5.486;2022-11-23T07:35:26;25.10;;;13.70;;
53879;SDS011;39791;53.184;5.486;2022-11-23T07:37:52;24.35;;;13.80;;
53879;SDS011;39791;53.184;5.486;2022-11-23T07:40:17;23.80;;;14.48;;
53879;SDS011;39791;53.184;5.486;2022-11-23T07:42:43;24.58;;;13.82;;
53879;SDS011;39791;53.184;5.486;2022-11-23T07:45:08;21.50;;;13.27;;
53879;SDS011;39791;53.184;5.486;2022-11-23T07:47:35;25.83;;;14.75;;
53879;SDS011;39791;53.184;5.486;2022-11-23T07:50:01;28.25;;;15.45;;
53879;SDS011;39791;53.184;5.486;2022-11-23T07:52:27;21.35;;;12.82;;
53879;SDS011;39791;53.184;5.486;2022-11-23T07:54:53;26.77;;;15.30;;
53879;SDS011;39791;53.184;5.486;2022-11-23T07:57:19;16.83;;;11.18;;
53879;SDS011;39791;53.184;5.486;2022-11-23T07:59:44;23.02;;;12.60;;
53879;SDS011;39791;53.184;5.486;2022-11-23T08:02:11;20.60;;;11.93;;
53879;SDS011;39791;53.184;5.486;2022-11-23T08:04:38;16.88;;;10.85;;
53879;SDS011;39791;53.184;5.486;2022-11-23T08:07:04;21.25;;;12.88;;
53879;SDS011;39791;53.184;5.486;2022-11-23T08:09:30;17.63;;;9.85;;
53879;SDS011;39791;53.184;5.486;2022-11-23T08:11:55;19.00;;;10.23;;
53879;SDS011;39791;53.184;5.486;2022-11-23T08:14:21;20.95;;;10.00;;
53879;SDS011;39791;53.184;5.486;2022-11-23T08:16:48;21.73;;;11.07;;
53879;SDS011;39791;53.184;5.486;2022-11-23T08:19:14;19.23;;;9.60;;
53879;SDS011;39791;53.184;5.486;2022-11-23T08:21:41;19.52;;;10.70;;
53879;SDS011;39791;53.184;5.486;2022-11-23T08:24:06;14.77;;;10.30;;
53879;SDS011;39791;53.184;5.486;2022-11-23T08:26:32;15.70;;;8.40;;
53879;SDS011;39791;53.184;5.486;2022-11-23T08:28:58;23.55;;;12.00;;
53879;SDS011;39791;53.184;5.486;2022-11-23T08:31:23;15.68;;;9.13;;
53879;SDS011;39791;53.184;5.486;2022-11-23T08:33:49;17.23;;;11.85;;
53879;SDS011;39791;53.184;5.486;2022-11-23T08:36:14;17.33;;;9.82;;
53879;SDS011;39791;53.184;5.486;2022-11-23T08:38:40;17.70;;;11.00;;
53879;SDS011;39791;53.184;5.486;2022-11-23T08:41:06;14.15;;;9.55;;
53879;SDS011;39791;53.184;5.486;2022-11-23T08:43:31;17.05;;;9.30;;
53879;SDS011;39791;53.184;5.486;2022-11-23T08:45:59;20.17;;;10.65;;
53879;SDS011;39791;53.184;5.486;2022-11-23T08:48:25;16.92;;;9.50;;
53879;SDS011;39791;53.184;5.486;2022-11-23T08:50:51;22.48;;;12.40;;
53879;SDS011;39791;53.184;5.486;2022-11-23T08:53:17;19.27;;;12.02;;
53879;SDS011;39791;53.184;5.486;2022-11-23T08:55:43;19.50;;;9.65;;
53879;SDS011;39791;53.184;5.486;2022-11-23T08:58:08;17.83;;;12.50;;
53879;SDS011;39791;53.184;5.486;2022-11-23T09:00:34;18.92;;;10.32;;
53879;SDS011;39791;53.184;5.486;2022-11-23T09:03:00;18.13;;;9.50;;
53879;SDS011;39791;53.184;5.486;2022-11-23T09:05:26;15.32;;;8.77;;
53879;SDS011;39791;53.184;5.486;2022-11-23T09:07:59;21.55;;;10.32;;
53879;SDS011;39791;53.184;5.486;2022-11-23T09:10:25;15.45;;;8.38;;
53879;SDS011;39791;53.184;5.486;2022-11-23T09:12:51;16.70;;;10.15;;
53879;SDS011;39791;53.184;5.486;2022-11-23T09:15:17;17.42;;;9.82;;
53879;SDS011;39791;53.184;5.486;2022-11-23T09:17:43;20.08;;;11.07;;
53879;SDS011;39791;53.184;5.486;2022-11-23T09:20:09;17.02;;;10.05;;
53879;SDS011;39791;53.184;5.486;2022-11-23T09:22:35;18.48;;;11.05;;
53879;SDS011;39791;53.184;5.486;2022-11-23T09:25:01;23.20;;;11.38;;
53879;SDS011;39791;53.184;5.486;2022-11-23T09:27:27;19.20;;;8.85;;
53879;SDS011;39791;53.184;5.486;2022-11-23T09:29:53;22.73;;;10.07;;
53879;SDS011;39791;53.184;5.486;2022-11-23T09:32:19;23.05;;;11.05;;
53879;SDS011;39791;53.184;5.486;2022-11-23T09:34:44;19.67;;;11.50;;
53879;SDS011;39791;53.184;5.486;2022-11-23T09:37:10;15.57;;;9.32;;
53879;SDS011;39791;53.184;5.486;2022-11-23T09:39:36;20.17;;;8.82;;
53879;SDS011;39791;53.184;5.486;2022-11-23T09:42:04;18.08;;;8.73;;
53879;SDS011;39791;53.184;5.486;2022-11-23T09:51:00;11.80;;;6.20;;
53879;SDS011;39791;53.184;5.486;2022-11-23T09:53:49;19.13;;;6.20;;
53879;SDS011;39791;53.184;5.486;2022-11-23T09:56:25;22.20;;;6.40;;
53879;SDS011;39791;53.184;5.486;2022-11-23T09:58:55;22.38;;;4.60;;
53879;SDS011;39791;53.184;5.486;2022-11-23T10:01:24;15.52;;;4.30;;
53879;SDS011;39791;53.184;5.486;2022-11-23T10:03:54;14.35;;;3.88;;
53879;SDS011;39791;53.184;5.486;2022-11-23T10:06:22;11.23;;;3.35;;
53879;SDS011;39791;53.184;5.486;2022-11-23T10:12:02;11.57;;;3.70;;
53879;SDS011;39791;53.184;5.486;2022-11-23T10:17:40;8.68;;;2.92;;
53879;SDS011;39791;53.184;5.486;2022-11-23T10:20:42;9.13;;;3.58;;
53879;SDS011;39791;53.184;5.486;2022-11-23T10:25:55;12.02;;;3.20;;
53879;SDS011;39791;53.184;5.486;2022-11-23T10:28:21;9.82;;;3.42;;
53879;SDS011;39791;53.184;5.486;2022-11-23T10:30:52;10.85;;;3.28;;
53879;SDS011;39791;53.184;5.486;2022-11-23T10:35:57;13.73;;;4.05;;
53879;SDS011;39791;53.184;5.486;2022-11-23T10:38:26;19.80;;;3.38;;
53879;SDS011;39791;53.184;5.486;2022-11-23T10:43:24;12.77;;;3.55;;
53879;SDS011;39791;53.184;5.486;2022-11-23T10:51:47;11.25;;;3.55;;
53879;SDS011;39791;53.184;5.486;2022-11-23T10:54:21;18.88;;;3.83;;
53879;SDS011;39791;53.184;5.486;2022-11-23T10:56:53;11.82;;;2.95;;
53879;SDS011;39791;53.184;5.486;2022-11-23T10:59:27;9.90;;;3.03;;
53879;SDS011;39791;53.184;5.486;2022-11-23T11:04:24;10.70;;;3.92;;
53879;SDS011;39791;53.184;5.486;2022-11-23T11:06:50;16.55;;;3.28;;
53879;SDS011;39791;53.184;5.486;2022-11-23T11:09:19;9.88;;;3.10;;
53879;SDS011;39791;53.184;5.486;2022-11-23T11:11:45;15.70;;;3.05;;
53879;SDS011;39791;53.184;5.486;2022-11-23T11:14:18;14.23;;;2.78;;
53879;SDS011;39791;53.184;5.486;2022-11-23T11:16:51;11.18;;;2.97;;
53879;SDS011;39791;53.184;5.486;2022-11-23T11:19:25;13.63;;;3.22;;
53879;SDS011;39791;53.184;5.486;2022-11-23T11:21:52;13.38;;;3.42;;
53879;SDS011;39791;53.184;5.486;2022-11-23T11:24:20;13.88;;;3.95;;
53879;SDS011;39791;53.184;5.486;2022-11-23T11:26:56;10.27;;;3.03;;
53879;SDS011;39791;53.184;5.486;2022-11-23T11:29:28;10.75;;;2.97;;
53879;SDS011;39791;53.184;5.486;2022-11-23T11:32:20;9.20;;;3.00;;
53879;SDS011;39791;53.184;5.486;2022-11-23T11:34:54;8.43;;;2.35;;
53879;SDS011;39791;53.184;5.486;2022-11-23T11:45:36;12.82;;;2.78;;
53879;SDS011;39791;53.184;5.486;2022-11-23T11:48:18;9.48;;;2.10;;
53879;SDS011;39791;53.184;5.486;2022-11-23T11:53:56;15.15;;;3.17;;
53879;SDS011;39791;53.184;5.486;2022-11-23T11:56:45;12.65;;;2.67;;
53879;SDS011;39791;53.184;5.486;2022-11-23T11:59:24;12.95;;;2.80;;
53879;SDS011;39791;53.184;5.486;2022-11-23T12:01:57;14.63;;;3.33;;
53879;SDS011;39791;53.184;5.486;2022-11-23T12:07:21;14.00;;;2.75;;
53879;SDS011;39791;53.184;5.486;2022-11-23T12:09:55;19.23;;;2.58;;
53879;SDS011;39791;53.184;5.486;2022-11-23T12:12:25;8.65;;;2.25;;
53879;SDS011;39791;53.184;5.486;2022-11-23T12:14:52;8.77;;;2.38;;
53879;SDS011;39791;53.184;5.486;2022-11-23T12:20:27;15.07;;;3.00;;
53879;SDS011;39791;53.184;5.486;2022-11-23T12:23:06;9.07;;;2.40;;
53879;SDS011;39791;53.184;5.486;2022-11-23T12:25:50;14.15;;;2.80;;
53879;SDS011;39791;53.184;5.486;2022-11-23T12:28:29;12.40;;;2.63;;
53879;SDS011;39791;53.184;5.486;2022-11-23T12:33:50;11.70;;;2.47;;
53879;SDS011;39791;53.184;5.486;2022-11-23T12:39:23;12.02;;;2.65;;
53879;SDS011;39791;53.184;5.486;2022-11-23T12:56:29;22.75;;;3.33;;
53879;SDS011;39791;53.184;5.486;2022-11-23T12:59:04;16.02;;;3.78;;
53879;SDS011;39791;53.184;5.486;2022-11-23T13:01:35;11.15;;;2.90;;
53879;SDS011;39791;53.184;5.486;2022-11-23T13:15:50;12.60;;;2.53;;
53879;SDS011;39791;53.184;5.486;2022-11-23T13:21:06;13.60;;;3.13;;
53879;SDS011;39791;53.184;5.486;2022-11-23T13:24:22;16.77;;;2.90;;
53879;SDS011;39791;53.184;5.486;2022-11-23T13:40:25;15.05;;;3.05;;
53879;SDS011;39791;53.184;5.486;2022-11-23T13:42:52;11.68;;;2.80;;
53879;SDS011;39791;53.184;5.486;2022-11-23T13:45:22;12.40;;;2.60;;
53879;SDS011;39791;53.184;5.486;2022-11-23T13:50:34;9.27;;;2.60;;
53879;SDS011;39791;53.184;5.486;2022-11-23T13:53:02;9.00;;;2.40;;
53879;SDS011;39791;53.184;5.486;2022-11-23T13:55:42;16.83;;;2.60;;
53879;SDS011;39791;53.184;5.486;2022-11-23T14:06:27;13.93;;;2.50;;
53879;SDS011;39791;53.184;5.486;2022-11-23T14:09:13;21.85;;;3.42;;
53879;SDS011;39791;53.184;5.486;2022-11-23T14:14:49;7.18;;;2.08;;
53879;SDS011;39791;53.184;5.486;2022-11-23T14:20:29;6.50;;;2.25;;
53879;SDS011;39791;53.184;5.486;2022-11-23T14:26:06;8.80;;;2.05;;
53879;SDS011;39791;53.184;5.486;2022-11-23T14:40:38;7.15;;;2.25;;
53879;SDS011;39791;53.184;5.486;2022-11-23T14:43:22;6.85;;;2.03;;
53879;SDS011;39791;53.184;5.486;2022-11-23T14:45:50;10.20;;;2.00;;
53879;SDS011;39791;53.184;5.486;2022-11-23T14:51:02;6.68;;;2.30;;
53879;SDS011;39791;53.184;5.486;2022-11-23T14:53:31;10.65;;;3.50;;
53879;SDS011;39791;53.184;5.486;2022-11-23T14:55:59;7.93;;;2.05;;
53879;SDS011;39791;53.184;5.486;2022-11-23T14:58:25;8.75;;;1.75;;
53879;SDS011;39791;53.184;5.486;2022-11-23T15:00:57;12.35;;;2.25;;
53879;SDS011;39791;53.184;5.486;2022-11-23T15:03:25;10.35;;;1.90;;
53879;SDS011;39791;53.184;5.486;2022-11-23T15:05:59;12.63;;;2.50;;
53879;SDS011;39791;53.184;5.486;2022-11-23T15:08:55;7.00;;;1.52;;
53879;SDS011;39791;53.184;5.486;2022-11-23T15:11:28;7.35;;;2.10;;
53879;SDS011;39791;53.184;5.486;2022-11-23T15:13:56;9.27;;;2.65;;
53879;SDS011;39791;53.184;5.486;2022-11-23T15:16:28;5.75;;;2.03;;
53879;SDS011;39791;53.184;5.486;2022-11-23T15:22:12;14.40;;;2.65;;
53879;SDS011;39791;53.184;5.486;2022-11-23T15:24:40;10.40;;;2.08;;
53879;SDS011;39791;53.184;5.486;2022-11-23T15:27:05;13.75;;;3.15;;
53879;SDS011;39791;53.184;5.486;2022-11-23T15:29:34;11.40;;;2.67;;
53879;SDS011;39791;53.184;5.486;2022-11-23T15:32:01;9.07;;;2.40;;
53879;SDS011;39791;53.184;5.486;2022-11-23T15:34:28;7.60;;;1.52;;
53879;SDS011;39791;53.184;5.486;2022-11-23T15:36:54;8.38;;;2.33;;
53879;SDS011;39791;53.184;5.486;2022-11-23T15:39:22;7.15;;;1.80;;
53879;SDS011;39791;53.184;5.486;2022-11-23T15:41:52;8.65;;;2.20;;
53879;SDS011;39791;53.184;5.486;2022-11-23T15:44:22;9.55;;;2.42;;
53879;SDS011;39791;53.184;5.486;2022-11-23T15:46:56;9.73;;;2.53;;
53879;SDS011;39791;53.184;5.486;2022-11-23T15:49:30;9.35;;;1.75;;
53879;SDS011;39791;53.184;5.486;2022-11-23T15:51:58;8.65;;;1.92;;
53879;SDS011;39791;53.184;5.486;2022-11-23T15:54:26;7.68;;;2.05;;
53879;SDS011;39791;53.184;5.486;2022-11-23T15:56:57;8.57;;;1.75;;
53879;SDS011;39791;53.184;5.486;2022-11-23T15:59:31;5.82;;;1.98;;
53879;SDS011;39791;53.184;5.486;2022-11-23T16:02:05;6.13;;;1.80;;
53879;SDS011;39791;53.184;5.486;2022-11-23T16:04:39;10.25;;;1.88;;
53879;SDS011;39791;53.184;5.486;2022-11-23T16:07:47;10.02;;;2.55;;
53879;SDS011;39791;53.184;5.486;2022-11-23T16:10:13;8.23;;;1.98;;
53879;SDS011;39791;53.184;5.486;2022-11-23T16:12:46;10.05;;;2.00;;
53879;SDS011;39791;53.184;5.486;2022-11-23T16:18:04;6.07;;;1.80;;
53879;SDS011;39791;53.184;5.486;2022-11-23T16:20:41;9.45;;;2.70;;
53879;SDS011;39791;53.184;5.486;2022-11-23T16:23:10;7.80;;;2.15;;
53879;SDS011;39791;53.184;5.486;2022-11-23T16:25:41;8.02;;;1.63;;
53879;SDS011;39791;53.184;5.486;2022-11-23T16:28:22;7.18;;;2.17;;
53879;SDS011;39791;53.184;5.486;2022-11-23T16:30:54;10.45;;;2.60;;
53879;SDS011;39791;53.184;5.486;2022-11-23T16:33:20;10.30;;;2.13;;
53879;SDS011;39791;53.184;5.486;2022-11-23T16:35:46;10.43;;;2.50;;
53879;SDS011;39791;53.184;5.486;2022-11-23T16:38:12;8.40;;;2.25;;
53879;SDS011;39791;53.184;5.486;2022-11-23T16:40:38;6.95;;;2.22;;
53879;SDS011;39791;53.184;5.486;2022-11-23T16:43:04;10.93;;;2.65;;
53879;SDS011;39791;53.184;5.486;2022-11-23T16:45:30;6.70;;;2.20;;
53879;SDS011;39791;53.184;5.486;2022-11-23T16:48:00;6.90;;;2.22;;
53879;SDS011;39791;53.184;5.486;2022-11-23T16:50:31;9.77;;;2.10;;
53879;SDS011;39791;53.184;5.486;2022-11-23T16:52:59;5.70;;;1.95;;
53879;SDS011;39791;53.184;5.486;2022-11-23T16:55:32;7.85;;;2.22;;
53879;SDS011;39791;53.184;5.486;2022-11-23T16:57:57;6.75;;;2.00;;